Montezuma, NM

8:58 AM MDT on August 22, 2014 (GMT -0600)
Clines Corner | Change Station
CLOSE
Current Station
Airport
Location: Clines Corner,
Elevation: 7087 ft
Nearby Weather Stations

Elev 7087 ft 35.00 °N, 105.66 °W | Updated 5 minutes ago

Overcast
Overcast
59 °F
Feels Like 59 °F
N
22
Wind Variable Wind from West

Today
High -- | Low -- °F
--% Chance of Precip.
Yesterday
High -- | Low -- °F
Precip. -- in
6:25 AM 7:41 PM
Waning Crescent, 8% visible
Pressure 30.02 in
Visibility 10.0 miles
Clouds Few 7500 ft
Overcast 10000 ft
Dew Point 53 °F
Humidity 81%
Rainfall 0.02 in
Snow Depth 2 in
UV 1 out of 12
Pollen 6.70 out of 12
Air Quality Not available.
Flu Activity Not available.
METAR KCQC 221453Z AUTO 27019KT 10SM FEW075 OVC100 15/12 A3028 RMK AO2 RAE10 SLP164 P0000 60002 T01500117 51014

More Conditions Fewer Conditions

Pressure 30.02 in
Visibility 10.0 miles
Clouds Few 7500 ft
Overcast 10000 ft
Dew Point 53 °F
Humidity 81%
Rainfall 0.02 in
Snow Depth 2 in
UV 1 out of 12
Pollen 6.70 out of 12
Air Quality Not available.
Flu Activity Not available.
METAR KCQC 221453Z AUTO 27019KT 10SM FEW075 OVC100 15/12 A3028 RMK AO2 RAE10 SLP164 P0000 60002 T01500117 51014

More Conditions Fewer Conditions

10-Day Weather Forecast

Almanac

Astronomy

Aug. 22, 2014 Rise Set
Actual Time 6:25 AM MDT 7:41 PM MDT
Civil Twilight 5:58 AM MDT 8:08 PM MDT
Nautical Twilight 5:27 AM MDT 8:39 PM MDT
Astronomical Twilight 4:54 AM MDT 9:12 PM MDT
Moon 3:53 AM MDT 5:50 PM MDT
Length of Visible Light 14h 09m
Length of Day
13h 16m
Tomorrow will be 2m 4s shorter.
Waning Crescent, 8% of the Moon is Illuminated
Today
Waning Crescent
Aug 25
New
Sep 2
First Quarter
Sep 8
Full
Sep 15
Last Quarter

Today's Extremes

State Highs State Lows

Community

WunderPhotos

Upload Photos

1,746,181 photos uploaded!

WunderBlogs® & News

Nearby

Snow Depth

Station Depth Elevation
Wesner Springs 2 in 11120 ft
Santa Fe 2 in 11445 ft
Gallegos Peak 0 in 9800 ft
Tolby 0 in 10180 ft
Quemazon 1 in 9500 ft

Earthquake Activity

City Distance Mag. Time & Date
No recent earthquake activity has been reported nearby.
Minimum magnitude displayed is 2.5.

Coastal Water Temperatures

Place Temperature
No Stations Reporting

Nearby Weather Stations